Laredo, TX

6:44 AM CDT on July 24, 2014 (GMT -0500)
Hogg County (KHBV) Elev 663 ft | 27.35 °N, 98.74 °W | Change Station

Current weather conditions updated 9 minutes ago

Clear
Clear
76 °F
Feels Like 76 °F
N
0
Wind Variable Wind from North

Today is forecast to be Warmer than yesterday.

Today
High -- | Low -- °F
--% Chance of Precip.
Yesterday
High -- | Low -- °F
Precip. -- in
6:57 AM 8:31 PM
Waning Crescent, 5% visible
Pressure 30.00 in
Visibility 10.0 miles
Clouds Clear
Dew Point 71 °F
Humidity 85%
Rainfall 0.00 in
Snow Depth Not available.
UV 0 out of 12
Pollen 6.10 out of 12
Ozone Good
PM2.5 Moderate
Flu Activity Not available.
METAR KHBV 241135Z AUTO 00000KT 10SM CLR 24/22 A3000 RMK AO2 T02430217

More Conditions Fewer Conditions

Pressure 30.00 in
Visibility 10.0 miles
Clouds Clear
Dew Point 71 °F
Humidity 85%
Rainfall 0.00 in
Snow Depth Not available.
UV 0 out of 12
Pollen 6.10 out of 12
Ozone Good
PM2.5 Moderate
Flu Activity Not available.
METAR KHBV 241135Z AUTO 00000KT 10SM CLR 24/22 A3000 RMK AO2 T02430217

More Conditions Fewer Conditions

10-Day Weather Forecast

Almanac

Astronomy

Jul. 24, 2014 Rise Set
Actual Time 6:57 AM CDT 8:31 PM CDT
Civil Twilight 6:31 AM CDT 8:57 PM CDT
Nautical Twilight 6:00 AM CDT 9:27 PM CDT
Astronomical Twilight 5:28 AM CDT 9:59 PM CDT
Moon 5:04 AM CDT 6:50 PM CDT
Length of Visible Light 14h 25m
Length of Day
13h 34m
Tomorrow will be 1m 3s shorter.
Waning Crescent, 5% of the Moon is Illuminated
Today
Waning Crescent
Jul 26
New
Aug 3
First Quarter
Aug 10
Full
Aug 17
Last Quarter

Today's Extremes

State Highs State Lows

Community

WunderPhotos

Upload Photos

1,736,978 photos uploaded!

Nearby

Air Quality

  Air Quality AQ Index Pollutant
Yesterday Moderate
PM2.5
Yesterday Good
OZONE
Current Moderate
PM2.5
Current Good
OZONE
Thursday Good
PM10
Thursday Good
OZONE
Friday Good
PM10
Friday Good
OZONE
Saturday Good
PM10
Saturday Good
OZONE

Snow Depth

Station Depth Elevation
No new snow has been reported.

Earthquake Activity

City Distance Mag. Time & Date
No recent earthquake activity has been reported nearby.
Minimum magnitude displayed is 2.5.

Coastal Water Temperatures

Place Temperature
No Stations Reporting

Nearby Weather Stations

Station Location Temp. Heat Index Dew Point Humidity Wind Precip. Elev Updated Type
Del Mar C, Laredo, TX 79.9 °F 84 °F 72 °F 76% ESE  at  5.8 mph 0.00 in / hr 489 ft 6:44 AM CDT Rapid Fire
Werner Ent. Laredo, Laredo, TX 77.1 °F 79 °F 71 °F 82% East  at  3.0 mph 0.00 in / hr 694 ft 6:34 AM CDT Normal
MesoWest CLAGNS , Encinal, TX 82 °F 80 °F - - North  at  - 0.00 in / hr 628 ft 3:35 AM CDT MADIS

Show More Stations Show Fewer Stations